sensor_id;sensor_type;location;lat;lon;timestamp;P1;durP1;ratioP1;P2;durP2;ratioP2
4835;SDS011;66719;51.226;6.902;2023-04-25T00:01:03;26.50;;;5.37;;
4835;SDS011;66719;51.226;6.902;2023-04-25T00:03:31;28.13;;;5.10;;
4835;SDS011;66719;51.226;6.902;2023-04-25T00:05:58;21.93;;;6.00;;
4835;SDS011;66719;51.226;6.902;2023-04-25T00:08:28;32.17;;;6.90;;
4835;SDS011;66719;51.226;6.902;2023-04-25T00:10:59;26.83;;;5.23;;
4835;SDS011;66719;51.226;6.902;2023-04-25T00:13:25;22.03;;;6.30;;
4835;SDS011;66719;51.226;6.902;2023-04-25T00:15:52;18.93;;;4.20;;
4835;SDS011;66719;51.226;6.902;2023-04-25T00:18:19;24.03;;;5.17;;
4835;SDS011;66719;51.226;6.902;2023-04-25T00:20:46;23.20;;;5.20;;
4835;SDS011;66719;51.226;6.902;2023-04-25T00:23:13;25.47;;;5.37;;
4835;SDS011;66719;51.226;6.902;2023-04-25T00:25:44;23.97;;;5.50;;
4835;SDS011;66719;51.226;6.902;2023-04-25T00:28:11;21.37;;;5.27;;
4835;SDS011;66719;51.226;6.902;2023-04-25T00:30:38;20.90;;;4.77;;
4835;SDS011;66719;51.226;6.902;2023-04-25T00:33:05;20.70;;;5.70;;
4835;SDS011;66719;51.226;6.902;2023-04-25T00:35:32;25.43;;;4.83;;
4835;SDS011;66719;51.226;6.902;2023-04-25T00:38:00;18.23;;;5.30;;
4835;SDS011;66719;51.226;6.902;2023-04-25T00:40:26;27.97;;;5.43;;
4835;SDS011;66719;51.226;6.902;2023-04-25T00:42:53;25.80;;;5.53;;
4835;SDS011;66719;51.226;6.902;2023-04-25T00:45:20;19.60;;;4.37;;
4835;SDS011;66719;51.226;6.902;2023-04-25T00:47:47;25.00;;;4.67;;
4835;SDS011;66719;51.226;6.902;2023-04-25T00:50:14;27.67;;;5.40;;
4835;SDS011;66719;51.226;6.902;2023-04-25T00:52:41;21.90;;;5.00;;
4835;SDS011;66719;51.226;6.902;2023-04-25T00:55:10;23.53;;;5.17;;
4835;SDS011;66719;51.226;6.902;2023-04-25T00:57:38;17.10;;;4.60;;
4835;SDS011;66719;51.226;6.902;2023-04-25T01:00:06;22.73;;;5.57;;
4835;SDS011;66719;51.226;6.902;2023-04-25T01:02:33;20.50;;;4.57;;
4835;SDS011;66719;51.226;6.902;2023-04-25T01:05:02;18.30;;;4.90;;
4835;SDS011;66719;51.226;6.902;2023-04-25T01:07:29;17.67;;;5.20;;
4835;SDS011;66719;51.226;6.902;2023-04-25T01:09:56;25.60;;;4.50;;
4835;SDS011;66719;51.226;6.902;2023-04-25T01:12:23;23.20;;;5.17;;
4835;SDS011;66719;51.226;6.902;2023-04-25T01:14:50;19.77;;;4.40;;
4835;SDS011;66719;51.226;6.902;2023-04-25T01:17:17;20.57;;;4.40;;
4835;SDS011;66719;51.226;6.902;2023-04-25T01:19:43;18.00;;;4.43;;
4835;SDS011;66719;51.226;6.902;2023-04-25T01:22:12;19.93;;;4.60;;
4835;SDS011;66719;51.226;6.902;2023-04-25T01:24:40;21.63;;;5.40;;
4835;SDS011;66719;51.226;6.902;2023-04-25T01:27:07;18.37;;;4.77;;
4835;SDS011;66719;51.226;6.902;2023-04-25T01:29:35;26.13;;;5.87;;
4835;SDS011;66719;51.226;6.902;2023-04-25T01:32:02;20.17;;;4.60;;
4835;SDS011;66719;51.226;6.902;2023-04-25T01:34:29;19.70;;;5.67;;
4835;SDS011;66719;51.226;6.902;2023-04-25T01:36:56;16.17;;;4.30;;
4835;SDS011;66719;51.226;6.902;2023-04-25T01:39:25;23.97;;;5.77;;
4835;SDS011;66719;51.226;6.902;2023-04-25T01:41:52;16.70;;;4.67;;
4835;SDS011;66719;51.226;6.902;2023-04-25T01:44:18;18.00;;;5.53;;
4835;SDS011;66719;51.226;6.902;2023-04-25T01:46:45;18.43;;;4.53;;
4835;SDS011;66719;51.226;6.902;2023-04-25T01:49:11;16.10;;;4.90;;
4835;SDS011;66719;51.226;6.902;2023-04-25T01:51:38;16.33;;;3.83;;
4835;SDS011;66719;51.226;6.902;2023-04-25T01:54:04;22.80;;;4.60;;
4835;SDS011;66719;51.226;6.902;2023-04-25T01:56:32;21.67;;;5.13;;
4835;SDS011;66719;51.226;6.902;2023-04-25T01:58:59;20.33;;;4.87;;
4835;SDS011;66719;51.226;6.902;2023-04-25T02:01:26;17.10;;;4.60;;
4835;SDS011;66719;51.226;6.902;2023-04-25T02:03:52;19.93;;;4.80;;
4835;SDS011;66719;51.226;6.902;2023-04-25T02:06:20;16.70;;;4.57;;
4835;SDS011;66719;51.226;6.902;2023-04-25T02:08:46;16.73;;;4.37;;
4835;SDS011;66719;51.226;6.902;2023-04-25T02:11:13;19.40;;;4.63;;
4835;SDS011;66719;51.226;6.902;2023-04-25T02:13:39;16.03;;;4.87;;
4835;SDS011;66719;51.226;6.902;2023-04-25T02:16:06;17.17;;;4.17;;
4835;SDS011;66719;51.226;6.902;2023-04-25T02:18:32;20.83;;;5.43;;
4835;SDS011;66719;51.226;6.902;2023-04-25T02:20:59;20.47;;;4.80;;
4835;SDS011;66719;51.226;6.902;2023-04-25T02:23:27;19.03;;;5.07;;
4835;SDS011;66719;51.226;6.902;2023-04-25T02:25:54;16.97;;;4.77;;
4835;SDS011;66719;51.226;6.902;2023-04-25T02:28:23;24.23;;;4.73;;
4835;SDS011;66719;51.226;6.902;2023-04-25T02:30:51;13.67;;;4.33;;
4835;SDS011;66719;51.226;6.902;2023-04-25T02:33:18;20.43;;;5.40;;
4835;SDS011;66719;51.226;6.902;2023-04-25T02:35:44;19.27;;;5.03;;
4835;SDS011;66719;51.226;6.902;2023-04-25T02:38:11;21.40;;;4.80;;
4835;SDS011;66719;51.226;6.902;2023-04-25T02:40:37;15.77;;;4.77;;
4835;SDS011;66719;51.226;6.902;2023-04-25T02:43:04;26.90;;;4.83;;
4835;SDS011;66719;51.226;6.902;2023-04-25T02:45:30;14.27;;;4.00;;
4835;SDS011;66719;51.226;6.902;2023-04-25T02:47:57;20.73;;;4.50;;
4835;SDS011;66719;51.226;6.902;2023-04-25T02:50:23;17.47;;;4.50;;
4835;SDS011;66719;51.226;6.902;2023-04-25T02:52:50;15.97;;;4.50;;
4835;SDS011;66719;51.226;6.902;2023-04-25T02:55:16;15.03;;;4.23;;
4835;SDS011;66719;51.226;6.902;2023-04-25T02:57:43;15.30;;;4.17;;
4835;SDS011;66719;51.226;6.902;2023-04-25T03:00:09;15.50;;;4.33;;
4835;SDS011;66719;51.226;6.902;2023-04-25T03:02:37;20.37;;;4.50;;
4835;SDS011;66719;51.226;6.902;2023-04-25T03:05:04;17.13;;;4.60;;
4835;SDS011;66719;51.226;6.902;2023-04-25T03:07:30;14.57;;;4.57;;
4835;SDS011;66719;51.226;6.902;2023-04-25T03:09:57;12.80;;;4.00;;
4835;SDS011;66719;51.226;6.902;2023-04-25T03:12:23;21.30;;;4.57;;
4835;SDS011;66719;51.226;6.902;2023-04-25T03:14:50;16.40;;;4.53;;
4835;SDS011;66719;51.226;6.902;2023-04-25T03:17:16;16.07;;;4.50;;
4835;SDS011;66719;51.226;6.902;2023-04-25T03:19:43;17.07;;;4.43;;
4835;SDS011;66719;51.226;6.902;2023-04-25T03:22:09;18.73;;;4.17;;
4835;SDS011;66719;51.226;6.902;2023-04-25T03:24:36;12.77;;;3.83;;
4835;SDS011;66719;51.226;6.902;2023-04-25T03:27:03;13.87;;;4.33;;
4835;SDS011;66719;51.226;6.902;2023-04-25T03:29:29;16.77;;;3.90;;
4835;SDS011;66719;51.226;6.902;2023-04-25T03:31:56;19.90;;;4.90;;
4835;SDS011;66719;51.226;6.902;2023-04-25T03:34:22;21.17;;;4.60;;
4835;SDS011;66719;51.226;6.902;2023-04-25T03:36:50;15.40;;;4.60;;
4835;SDS011;66719;51.226;6.902;2023-04-25T03:39:16;25.87;;;5.00;;
4835;SDS011;66719;51.226;6.902;2023-04-25T03:41:43;24.07;;;5.60;;
4835;SDS011;66719;51.226;6.902;2023-04-25T03:44:09;17.23;;;5.10;;
4835;SDS011;66719;51.226;6.902;2023-04-25T03:46:36;23.27;;;5.77;;
4835;SDS011;66719;51.226;6.902;2023-04-25T03:49:02;19.27;;;5.43;;
4835;SDS011;66719;51.226;6.902;2023-04-25T03:51:29;18.43;;;6.40;;
4835;SDS011;66719;51.226;6.902;2023-04-25T03:53:56;23.87;;;5.83;;
4835;SDS011;66719;51.226;6.902;2023-04-25T03:56:23;22.30;;;5.97;;
4835;SDS011;66719;51.226;6.902;2023-04-25T03:58:49;28.53;;;5.90;;
4835;SDS011;66719;51.226;6.902;2023-04-25T04:01:16;25.70;;;6.30;;
4835;SDS011;66719;51.226;6.902;2023-04-25T04:03:42;24.93;;;6.40;;
4835;SDS011;66719;51.226;6.902;2023-04-25T04:06:10;17.40;;;5.47;;
4835;SDS011;66719;51.226;6.902;2023-04-25T04:08:36;21.10;;;5.30;;
4835;SDS011;66719;51.226;6.902;2023-04-25T04:11:03;26.00;;;6.57;;
4835;SDS011;66719;51.226;6.902;2023-04-25T04:13:29;26.53;;;5.50;;
4835;SDS011;66719;51.226;6.902;2023-04-25T04:15:56;25.07;;;6.37;;
4835;SDS011;66719;51.226;6.902;2023-04-25T04:18:23;24.33;;;6.63;;
4835;SDS011;66719;51.226;6.902;2023-04-25T04:20:50;27.10;;;6.90;;
4835;SDS011;66719;51.226;6.902;2023-04-25T04:23:17;21.03;;;5.90;;
4835;SDS011;66719;51.226;6.902;2023-04-25T04:25:43;25.93;;;6.27;;
4835;SDS011;66719;51.226;6.902;2023-04-25T04:28:10;24.43;;;7.23;;
4835;SDS011;66719;51.226;6.902;2023-04-25T04:30:37;24.40;;;6.43;;
4835;SDS011;66719;51.226;6.902;2023-04-25T04:33:05;23.30;;;5.70;;
4835;SDS011;66719;51.226;6.902;2023-04-25T04:35:33;20.87;;;6.10;;
4835;SDS011;66719;51.226;6.902;2023-04-25T04:37:59;30.37;;;7.37;;
4835;SDS011;66719;51.226;6.902;2023-04-25T04:40:26;25.87;;;5.93;;
4835;SDS011;66719;51.226;6.902;2023-04-25T04:42:52;32.77;;;6.40;;
4835;SDS011;66719;51.226;6.902;2023-04-25T04:45:19;23.47;;;5.90;;
4835;SDS011;66719;51.226;6.902;2023-04-25T04:47:46;32.80;;;6.00;;
4835;SDS011;66719;51.226;6.902;2023-04-25T04:50:14;27.23;;;7.80;;
4835;SDS011;66719;51.226;6.902;2023-04-25T04:52:42;21.03;;;6.30;;
4835;SDS011;66719;51.226;6.902;2023-04-25T04:55:09;28.53;;;6.87;;
4835;SDS011;66719;51.226;6.902;2023-04-25T04:57:35;19.37;;;5.50;;
4835;SDS011;66719;51.226;6.902;2023-04-25T05:00:03;30.00;;;7.53;;
4835;SDS011;66719;51.226;6.902;2023-04-25T05:02:37;28.73;;;6.20;;
4835;SDS011;66719;51.226;6.902;2023-04-25T05:05:05;23.40;;;6.20;;
4835;SDS011;66719;51.226;6.902;2023-04-25T05:07:32;24.60;;;6.47;;
4835;SDS011;66719;51.226;6.902;2023-04-25T05:09:58;20.13;;;5.87;;
4835;SDS011;66719;51.226;6.902;2023-04-25T05:12:25;28.90;;;6.33;;
4835;SDS011;66719;51.226;6.902;2023-04-25T05:14:51;28.20;;;7.03;;
4835;SDS011;66719;51.226;6.902;2023-04-25T05:17:17;31.60;;;6.00;;
4835;SDS011;66719;51.226;6.902;2023-04-25T05:19:44;28.47;;;6.40;;
4835;SDS011;66719;51.226;6.902;2023-04-25T05:22:10;30.43;;;6.37;;
4835;SDS011;66719;51.226;6.902;2023-04-25T05:24:37;37.17;;;7.83;;
4835;SDS011;66719;51.226;6.902;2023-04-25T05:27:03;34.37;;;7.00;;
4835;SDS011;66719;51.226;6.902;2023-04-25T05:29:30;34.63;;;7.07;;
4835;SDS011;66719;51.226;6.902;2023-04-25T05:31:56;26.90;;;6.13;;
4835;SDS011;66719;51.226;6.902;2023-04-25T05:34:23;32.00;;;6.93;;
4835;SDS011;66719;51.226;6.902;2023-04-25T05:36:49;23.43;;;6.57;;
4835;SDS011;66719;51.226;6.902;2023-04-25T05:39:16;22.33;;;7.07;;
4835;SDS011;66719;51.226;6.902;2023-04-25T05:41:43;27.80;;;6.70;;
4835;SDS011;66719;51.226;6.902;2023-04-25T05:44:10;24.63;;;6.77;;
4835;SDS011;66719;51.226;6.902;2023-04-25T05:46:36;29.63;;;7.53;;
4835;SDS011;66719;51.226;6.902;2023-04-25T05:49:03;34.97;;;7.67;;
4835;SDS011;66719;51.226;6.902;2023-04-25T05:51:29;33.43;;;8.13;;
4835;SDS011;66719;51.226;6.902;2023-04-25T05:53:57;29.77;;;7.27;;
4835;SDS011;66719;51.226;6.902;2023-04-25T05:56:23;33.03;;;7.13;;
4835;SDS011;66719;51.226;6.902;2023-04-25T05:58:50;29.77;;;7.27;;
4835;SDS011;66719;51.226;6.902;2023-04-25T06:01:16;36.53;;;7.87;;
4835;SDS011;66719;51.226;6.902;2023-04-25T06:03:43;34.30;;;8.30;;
4835;SDS011;66719;51.226;6.902;2023-04-25T06:06:11;31.47;;;7.80;;
4835;SDS011;66719;51.226;6.902;2023-04-25T06:08:37;26.47;;;7.53;;
4835;SDS011;66719;51.226;6.902;2023-04-25T06:11:04;41.50;;;9.50;;
4835;SDS011;66719;51.226;6.902;2023-04-25T06:13:31;37.17;;;7.20;;
4835;SDS011;66719;51.226;6.902;2023-04-25T06:15:57;34.60;;;7.50;;
4835;SDS011;66719;51.226;6.902;2023-04-25T06:18:24;32.00;;;6.47;;
4835;SDS011;66719;51.226;6.902;2023-04-25T06:20:51;23.07;;;7.40;;
4835;SDS011;66719;51.226;6.902;2023-04-25T06:23:17;29.10;;;6.83;;
4835;SDS011;66719;51.226;6.902;2023-04-25T06:25:44;32.13;;;7.00;;
4835;SDS011;66719;51.226;6.902;2023-04-25T06:28:10;27.20;;;6.40;;
4835;SDS011;66719;51.226;6.902;2023-04-25T06:30:37;21.33;;;6.47;;
4835;SDS011;66719;51.226;6.902;2023-04-25T06:33:03;25.23;;;6.20;;
4835;SDS011;66719;51.226;6.902;2023-04-25T06:35:30;34.83;;;6.63;;
4835;SDS011;66719;51.226;6.902;2023-04-25T06:37:57;26.07;;;6.70;;
4835;SDS011;66719;51.226;6.902;2023-04-25T06:40:24;22.80;;;6.70;;
4835;SDS011;66719;51.226;6.902;2023-04-25T06:42:50;26.73;;;5.90;;
4835;SDS011;66719;51.226;6.902;2023-04-25T06:45:17;31.80;;;5.70;;
4835;SDS011;66719;51.226;6.902;2023-04-25T06:47:43;32.53;;;7.10;;
4835;SDS011;66719;51.226;6.902;2023-04-25T06:50:10;26.50;;;5.70;;
4835;SDS011;66719;51.226;6.902;2023-04-25T06:52:37;23.30;;;5.20;;
4835;SDS011;66719;51.226;6.902;2023-04-25T06:55:03;20.23;;;5.73;;
4835;SDS011;66719;51.226;6.902;2023-04-25T06:57:31;19.87;;;5.17;;
4835;SDS011;66719;51.226;6.902;2023-04-25T06:59:58;24.83;;;5.00;;
4835;SDS011;66719;51.226;6.902;2023-04-25T07:02:27;24.60;;;5.20;;
4835;SDS011;66719;51.226;6.902;2023-04-25T07:04:54;23.60;;;5.30;;
4835;SDS011;66719;51.226;6.902;2023-04-25T07:07:22;24.00;;;5.03;;
4835;SDS011;66719;51.226;6.902;2023-04-25T07:09:48;28.07;;;5.40;;
4835;SDS011;66719;51.226;6.902;2023-04-25T07:12:15;24.77;;;4.73;;
4835;SDS011;66719;51.226;6.902;2023-04-25T07:14:41;22.97;;;4.77;;
4835;SDS011;66719;51.226;6.902;2023-04-25T07:17:08;19.90;;;4.63;;
4835;SDS011;66719;51.226;6.902;2023-04-25T07:19:34;17.33;;;4.30;;
4835;SDS011;66719;51.226;6.902;2023-04-25T07:22:01;19.63;;;4.73;;
4835;SDS011;66719;51.226;6.902;2023-04-25T07:24:28;23.73;;;4.27;;
4835;SDS011;66719;51.226;6.902;2023-04-25T07:26:54;23.73;;;3.50;;
4835;SDS011;66719;51.226;6.902;2023-04-25T07:29:21;23.27;;;5.70;;
4835;SDS011;66719;51.226;6.902;2023-04-25T07:31:48;22.30;;;4.20;;
4835;SDS011;66719;51.226;6.902;2023-04-25T07:34:14;22.30;;;4.10;;
4835;SDS011;66719;51.226;6.902;2023-04-25T07:36:41;21.50;;;5.10;;
4835;SDS011;66719;51.226;6.902;2023-04-25T07:39:08;19.57;;;5.07;;
4835;SDS011;66719;51.226;6.902;2023-04-25T07:41:35;23.90;;;4.30;;
4835;SDS011;66719;51.226;6.902;2023-04-25T07:44:01;20.80;;;3.87;;
4835;SDS011;66719;51.226;6.902;2023-04-25T07:46:28;23.53;;;4.23;;
4835;SDS011;66719;51.226;6.902;2023-04-25T07:48:54;25.00;;;5.00;;
4835;SDS011;66719;51.226;6.902;2023-04-25T07:51:21;17.80;;;3.40;;
4835;SDS011;66719;51.226;6.902;2023-04-25T07:53:48;22.10;;;4.50;;
4835;SDS011;66719;51.226;6.902;2023-04-25T07:56:15;16.63;;;3.70;;
4835;SDS011;66719;51.226;6.902;2023-04-25T07:58:42;15.17;;;3.57;;
4835;SDS011;66719;51.226;6.902;2023-04-25T08:01:08;29.23;;;5.60;;
4835;SDS011;66719;51.226;6.902;2023-04-25T08:03:35;18.57;;;3.77;;
4835;SDS011;66719;51.226;6.902;2023-04-25T08:06:02;20.70;;;3.77;;
4835;SDS011;66719;51.226;6.902;2023-04-25T08:08:33;18.13;;;3.40;;
4835;SDS011;66719;51.226;6.902;2023-04-25T08:10:59;20.27;;;4.63;;
4835;SDS011;66719;51.226;6.902;2023-04-25T08:13:26;21.40;;;4.00;;
4835;SDS011;66719;51.226;6.902;2023-04-25T08:15:52;23.63;;;3.40;;
4835;SDS011;66719;51.226;6.902;2023-04-25T08:18:19;27.20;;;3.70;;
4835;SDS011;66719;51.226;6.902;2023-04-25T08:20:45;19.43;;;3.80;;
4835;SDS011;66719;51.226;6.902;2023-04-25T08:23:12;21.90;;;4.10;;
4835;SDS011;66719;51.226;6.902;2023-04-25T08:25:39;24.10;;;4.70;;
4835;SDS011;66719;51.226;6.902;2023-04-25T08:28:06;17.00;;;2.83;;
4835;SDS011;66719;51.226;6.902;2023-04-25T08:30:32;24.07;;;3.80;;
4835;SDS011;66719;51.226;6.902;2023-04-25T08:32:59;20.37;;;3.70;;
4835;SDS011;66719;51.226;6.902;2023-04-25T08:35:25;23.97;;;4.20;;
4835;SDS011;66719;51.226;6.902;2023-04-25T08:37:52;24.50;;;4.20;;
4835;SDS011;66719;51.226;6.902;2023-04-25T08:40:18;18.07;;;3.90;;
4835;SDS011;66719;51.226;6.902;2023-04-25T08:42:52;17.73;;;4.20;;
4835;SDS011;66719;51.226;6.902;2023-04-25T08:45:20;24.20;;;4.40;;
4835;SDS011;66719;51.226;6.902;2023-04-25T08:47:46;23.10;;;4.30;;
4835;SDS011;66719;51.226;6.902;2023-04-25T08:50:15;20.23;;;4.50;;
4835;SDS011;66719;51.226;6.902;2023-04-25T08:52:44;26.93;;;5.60;;
4835;SDS011;66719;51.226;6.902;2023-04-25T08:55:12;16.87;;;3.90;;
4835;SDS011;66719;51.226;6.902;2023-04-25T08:57:43;18.67;;;4.63;;
4835;SDS011;66719;51.226;6.902;2023-04-25T09:00:11;20.20;;;5.37;;
4835;SDS011;66719;51.226;6.902;2023-04-25T09:02:39;23.57;;;4.40;;
4835;SDS011;66719;51.226;6.902;2023-04-25T09:05:06;20.63;;;5.23;;
4835;SDS011;66719;51.226;6.902;2023-04-25T09:07:35;24.10;;;5.37;;
4835;SDS011;66719;51.226;6.902;2023-04-25T09:10:02;21.03;;;4.53;;
4835;SDS011;66719;51.226;6.902;2023-04-25T09:12:29;20.03;;;3.90;;
4835;SDS011;66719;51.226;6.902;2023-04-25T09:17:30;13.43;;;3.13;;
4835;SDS011;66719;51.226;6.902;2023-04-25T09:20:05;15.40;;;3.80;;
4835;SDS011;66719;51.226;6.902;2023-04-25T09:22:41;14.47;;;3.67;;
4835;SDS011;66719;51.226;6.902;2023-04-25T09:25:09;16.67;;;4.80;;
4835;SDS011;66719;51.226;6.902;2023-04-25T09:27:48;29.97;;;5.70;;
4835;SDS011;66719;51.226;6.902;2023-04-25T09:30:28;14.40;;;3.23;;
4835;SDS011;66719;51.226;6.902;2023-04-25T09:32:57;15.80;;;3.10;;
4835;SDS011;66719;51.226;6.902;2023-04-25T09:35:30;16.60;;;3.00;;
4835;SDS011;66719;51.226;6.902;2023-04-25T09:38:10;18.47;;;4.00;;
4835;SDS011;66719;51.226;6.902;2023-04-25T09:40:39;29.10;;;3.63;;
4835;SDS011;66719;51.226;6.902;2023-04-25T09:45:46;16.07;;;2.90;;
4835;SDS011;66719;51.226;6.902;2023-04-25T09:48:20;14.80;;;3.10;;
4835;SDS011;66719;51.226;6.902;2023-04-25T09:53:38;13.30;;;3.70;;
4835;SDS011;66719;51.226;6.902;2023-04-25T09:56:09;18.37;;;4.20;;
4835;SDS011;66719;51.226;6.902;2023-04-25T09:58:38;11.23;;;3.10;;
4835;SDS011;66719;51.226;6.902;2023-04-25T10:01:08;17.10;;;3.80;;
4835;SDS011;66719;51.226;6.902;2023-04-25T10:03:38;17.73;;;3.30;;
4835;SDS011;66719;51.226;6.902;2023-04-25T10:06:11;13.67;;;3.27;;
4835;SDS011;66719;51.226;6.902;2023-04-25T10:08:40;11.87;;;2.50;;
4835;SDS011;66719;51.226;6.902;2023-04-25T10:11:08;17.23;;;2.63;;
4835;SDS011;66719;51.226;6.902;2023-04-25T10:13:35;10.10;;;2.23;;
4835;SDS011;66719;51.226;6.902;2023-04-25T10:16:03;14.40;;;2.50;;
4835;SDS011;66719;51.226;6.902;2023-04-25T10:18:30;14.03;;;2.70;;
4835;SDS011;66719;51.226;6.902;2023-04-25T10:20:59;20.10;;;2.90;;
4835;SDS011;66719;51.226;6.902;2023-04-25T10:23:28;15.90;;;2.63;;
4835;SDS011;66719;51.226;6.902;2023-04-25T10:25:56;17.63;;;3.00;;
4835;SDS011;66719;51.226;6.902;2023-04-25T10:28:24;16.90;;;3.03;;
4835;SDS011;66719;51.226;6.902;2023-04-25T10:31:01;13.37;;;2.40;;
4835;SDS011;66719;51.226;6.902;2023-04-25T10:33:35;12.10;;;2.27;;
4835;SDS011;66719;51.226;6.902;2023-04-25T10:36:13;11.73;;;2.77;;
4835;SDS011;66719;51.226;6.902;2023-04-25T10:38:44;15.87;;;3.37;;
4835;SDS011;66719;51.226;6.902;2023-04-25T10:41:13;16.83;;;2.40;;
4835;SDS011;66719;51.226;6.902;2023-04-25T10:43:41;18.07;;;3.10;;
4835;SDS011;66719;51.226;6.902;2023-04-25T10:46:15;16.20;;;2.80;;
4835;SDS011;66719;51.226;6.902;2023-04-25T10:48:49;15.53;;;3.10;;
4835;SDS011;66719;51.226;6.902;2023-04-25T10:51:17;15.83;;;2.43;;
4835;SDS011;66719;51.226;6.902;2023-04-25T10:53:56;11.80;;;2.37;;
4835;SDS011;66719;51.226;6.902;2023-04-25T10:56:30;13.73;;;2.50;;
4835;SDS011;66719;51.226;6.902;2023-04-25T11:01:38;11.47;;;2.50;;
4835;SDS011;66719;51.226;6.902;2023-04-25T11:04:24;12.20;;;2.40;;
4835;SDS011;66719;51.226;6.902;2023-04-25T11:09:49;12.20;;;2.43;;
4835;SDS011;66719;51.226;6.902;2023-04-25T11:12:16;12.90;;;2.60;;
4835;SDS011;66719;51.226;6.902;2023-04-25T11:14:43;9.57;;;2.23;;
4835;SDS011;66719;51.226;6.902;2023-04-25T11:17:10;15.80;;;2.60;;
4835;SDS011;66719;51.226;6.902;2023-04-25T11:19:37;12.73;;;2.00;;
4835;SDS011;66719;51.226;6.902;2023-04-25T11:22:03;16.30;;;2.80;;
4835;SDS011;66719;51.226;6.902;2023-04-25T11:24:32;11.60;;;2.50;;
4835;SDS011;66719;51.226;6.902;2023-04-25T11:27:04;11.23;;;1.73;;
4835;SDS011;66719;51.226;6.902;2023-04-25T11:29:32;11.90;;;2.67;;
4835;SDS011;66719;51.226;6.902;2023-04-25T11:32:00;12.33;;;2.43;;
4835;SDS011;66719;51.226;6.902;2023-04-25T11:34:28;11.73;;;1.90;;
4835;SDS011;66719;51.226;6.902;2023-04-25T11:36:57;12.57;;;2.07;;
4835;SDS011;66719;51.226;6.902;2023-04-25T11:39:24;12.20;;;2.80;;
4835;SDS011;66719;51.226;6.902;2023-04-25T11:41:52;19.40;;;2.60;;
4835;SDS011;66719;51.226;6.902;2023-04-25T11:44:19;10.50;;;2.57;;
4835;SDS011;66719;51.226;6.902;2023-04-25T11:46:47;11.73;;;1.97;;
4835;SDS011;66719;51.226;6.902;2023-04-25T11:49:14;10.80;;;2.27;;
4835;SDS011;66719;51.226;6.902;2023-04-25T11:51:41;15.60;;;3.03;;
4835;SDS011;66719;51.226;6.902;2023-04-25T11:54:12;16.27;;;2.90;;
4835;SDS011;66719;51.226;6.902;2023-04-25T11:56:42;12.60;;;2.80;;
4835;SDS011;66719;51.226;6.902;2023-04-25T11:59:10;14.63;;;2.73;;
4835;SDS011;66719;51.226;6.902;2023-04-25T12:01:39;15.03;;;3.03;;
4835;SDS011;66719;51.226;6.902;2023-04-25T12:04:16;17.43;;;3.07;;
4835;SDS011;66719;51.226;6.902;2023-04-25T12:06:48;14.50;;;2.63;;
4835;SDS011;66719;51.226;6.902;2023-04-25T12:09:18;14.73;;;2.73;;
4835;SDS011;66719;51.226;6.902;2023-04-25T12:11:56;19.83;;;3.37;;
4835;SDS011;66719;51.226;6.902;2023-04-25T12:14:28;11.20;;;2.40;;
4835;SDS011;66719;51.226;6.902;2023-04-25T12:17:00;18.10;;;3.70;;
4835;SDS011;66719;51.226;6.902;2023-04-25T12:19:33;18.63;;;3.93;;
4835;SDS011;66719;51.226;6.902;2023-04-25T12:22:28;13.73;;;2.80;;
4835;SDS011;66719;51.226;6.902;2023-04-25T12:24:53;17.00;;;3.00;;
4835;SDS011;66719;51.226;6.902;2023-04-25T12:27:20;17.97;;;2.93;;
4835;SDS011;66719;51.226;6.902;2023-04-25T12:29:54;13.27;;;2.60;;
4835;SDS011;66719;51.226;6.902;2023-04-25T12:32:22;17.03;;;3.03;;
4835;SDS011;66719;51.226;6.902;2023-04-25T12:34:49;14.33;;;3.20;;
4835;SDS011;66719;51.226;6.902;2023-04-25T12:37:15;16.40;;;3.40;;
4835;SDS011;66719;51.226;6.902;2023-04-25T12:39:42;16.60;;;3.30;;
4835;SDS011;66719;51.226;6.902;2023-04-25T12:42:08;14.70;;;4.43;;
4835;SDS011;66719;51.226;6.902;2023-04-25T12:44:38;21.63;;;3.47;;
4835;SDS011;66719;51.226;6.902;2023-04-25T12:47:04;13.40;;;3.37;;
4835;SDS011;66719;51.226;6.902;2023-04-25T12:49:32;14.30;;;4.23;;
4835;SDS011;66719;51.226;6.902;2023-04-25T12:51:59;14.87;;;3.53;;
4835;SDS011;66719;51.226;6.902;2023-04-25T12:54:25;14.73;;;3.17;;
4835;SDS011;66719;51.226;6.902;2023-04-25T12:56:52;21.80;;;3.93;;
4835;SDS011;66719;51.226;6.902;2023-04-25T12:59:19;12.93;;;3.40;;
4835;SDS011;66719;51.226;6.902;2023-04-25T13:01:46;15.03;;;3.30;;
4835;SDS011;66719;51.226;6.902;2023-04-25T13:04:13;13.50;;;3.27;;
4835;SDS011;66719;51.226;6.902;2023-04-25T13:06:40;12.83;;;3.47;;
4835;SDS011;66719;51.226;6.902;2023-04-25T13:09:06;20.03;;;3.57;;
4835;SDS011;66719;51.226;6.902;2023-04-25T13:11:33;14.53;;;3.07;;
4835;SDS011;66719;51.226;6.902;2023-04-25T13:14:00;13.40;;;3.00;;
4835;SDS011;66719;51.226;6.902;2023-04-25T13:16:26;16.13;;;3.40;;
4835;SDS011;66719;51.226;6.902;2023-04-25T13:18:53;17.77;;;2.93;;
4835;SDS011;66719;51.226;6.902;2023-04-25T13:21:19;15.20;;;3.20;;
4835;SDS011;66719;51.226;6.902;2023-04-25T13:23:46;15.17;;;3.20;;
4835;SDS011;66719;51.226;6.902;2023-04-25T13:26:12;13.30;;;3.10;;
4835;SDS011;66719;51.226;6.902;2023-04-25T13:28:39;16.37;;;2.63;;
4835;SDS011;66719;51.226;6.902;2023-04-25T13:31:09;16.97;;;3.60;;
4835;SDS011;66719;51.226;6.902;2023-04-25T13:33:36;13.53;;;3.10;;
4835;SDS011;66719;51.226;6.902;2023-04-25T13:36:02;13.23;;;3.00;;
4835;SDS011;66719;51.226;6.902;2023-04-25T13:38:29;17.40;;;3.40;;
4835;SDS011;66719;51.226;6.902;2023-04-25T13:40:56;23.33;;;2.90;;
4835;SDS011;66719;51.226;6.902;2023-04-25T13:43:23;16.20;;;2.47;;
4835;SDS011;66719;51.226;6.902;2023-04-25T13:45:49;9.30;;;2.10;;
4835;SDS011;66719;51.226;6.902;2023-04-25T13:48:16;12.27;;;2.60;;
4835;SDS011;66719;51.226;6.902;2023-04-25T13:50:44;15.50;;;2.50;;
4835;SDS011;66719;51.226;6.902;2023-04-25T13:53:11;13.73;;;2.40;;
4835;SDS011;66719;51.226;6.902;2023-04-25T13:55:38;10.47;;;2.30;;
4835;SDS011;66719;51.226;6.902;2023-04-25T13:58:05;12.90;;;2.50;;
4835;SDS011;66719;51.226;6.902;2023-04-25T14:00:37;9.40;;;2.40;;
4835;SDS011;66719;51.226;6.902;2023-04-25T14:03:05;12.70;;;2.60;;
4835;SDS011;66719;51.226;6.902;2023-04-25T14:05:36;12.30;;;2.80;;
4835;SDS011;66719;51.226;6.902;2023-04-25T14:08:07;12.07;;;2.57;;
4835;SDS011;66719;51.226;6.902;2023-04-25T14:10:34;13.20;;;2.30;;
4835;SDS011;66719;51.226;6.902;2023-04-25T14:13:02;13.93;;;2.20;;
4835;SDS011;66719;51.226;6.902;2023-04-25T14:15:30;12.83;;;2.47;;
4835;SDS011;66719;51.226;6.902;2023-04-25T14:17:58;15.33;;;2.57;;
4835;SDS011;66719;51.226;6.902;2023-04-25T14:20:25;13.67;;;2.57;;
4835;SDS011;66719;51.226;6.902;2023-04-25T14:22:52;15.37;;;3.13;;
4835;SDS011;66719;51.226;6.902;2023-04-25T14:25:20;15.53;;;2.20;;
4835;SDS011;66719;51.226;6.902;2023-04-25T14:27:47;14.50;;;2.73;;
4835;SDS011;66719;51.226;6.902;2023-04-25T14:30:16;14.47;;;2.33;;
4835;SDS011;66719;51.226;6.902;2023-04-25T14:32:48;11.17;;;2.30;;
4835;SDS011;66719;51.226;6.902;2023-04-25T14:35:16;12.63;;;2.60;;
4835;SDS011;66719;51.226;6.902;2023-04-25T14:37:42;12.93;;;2.37;;
4835;SDS011;66719;51.226;6.902;2023-04-25T14:40:09;14.73;;;3.07;;
4835;SDS011;66719;51.226;6.902;2023-04-25T14:42:37;14.83;;;3.07;;
4835;SDS011;66719;51.226;6.902;2023-04-25T14:45:04;13.03;;;2.67;;
4835;SDS011;66719;51.226;6.902;2023-04-25T14:47:33;13.93;;;3.17;;
4835;SDS011;66719;51.226;6.902;2023-04-25T14:50:01;12.47;;;2.93;;
4835;SDS011;66719;51.226;6.902;2023-04-25T14:52:28;12.87;;;2.50;;
4835;SDS011;66719;51.226;6.902;2023-04-25T14:54:55;12.73;;;2.47;;
4835;SDS011;66719;51.226;6.902;2023-04-25T14:57:21;9.33;;;1.70;;
4835;SDS011;66719;51.226;6.902;2023-04-25T14:59:48;13.53;;;2.50;;
4835;SDS011;66719;51.226;6.902;2023-04-25T15:02:14;11.53;;;2.20;;
4835;SDS011;66719;51.226;6.902;2023-04-25T15:04:41;10.63;;;2.07;;